sensor_id;sensor_type;location;lat;lon;timestamp;P1;durP1;ratioP1;P2;durP2;ratioP2
29370;SDS011;16357;52.188;7.838;2024-02-28T00:00:29;49.80;;;21.73;;
29370;SDS011;16357;52.188;7.838;2024-02-28T00:02:56;43.95;;;21.40;;
29370;SDS011;16357;52.188;7.838;2024-02-28T00:05:22;40.90;;;20.27;;
29370;SDS011;16357;52.188;7.838;2024-02-28T00:07:49;40.38;;;20.38;;
29370;SDS011;16357;52.188;7.838;2024-02-28T00:10:15;49.40;;;21.17;;
29370;SDS011;16357;52.188;7.838;2024-02-28T00:12:42;51.58;;;20.70;;
29370;SDS011;16357;52.188;7.838;2024-02-28T00:15:08;50.15;;;19.83;;
29370;SDS011;16357;52.188;7.838;2024-02-28T00:17:38;43.10;;;20.45;;
29370;SDS011;16357;52.188;7.838;2024-02-28T00:20:08;44.85;;;19.33;;
29370;SDS011;16357;52.188;7.838;2024-02-28T00:22:36;55.55;;;21.30;;
29370;SDS011;16357;52.188;7.838;2024-02-28T00:25:03;52.92;;;18.70;;
29370;SDS011;16357;52.188;7.838;2024-02-28T00:27:34;45.80;;;20.73;;
29370;SDS011;16357;52.188;7.838;2024-02-28T00:30:02;39.97;;;19.15;;
29370;SDS011;16357;52.188;7.838;2024-02-28T00:32:32;50.38;;;19.90;;
29370;SDS011;16357;52.188;7.838;2024-02-28T00:34:59;53.72;;;20.90;;
29370;SDS011;16357;52.188;7.838;2024-02-28T00:37:25;44.58;;;19.88;;
29370;SDS011;16357;52.188;7.838;2024-02-28T00:39:52;43.25;;;20.92;;
29370;SDS011;16357;52.188;7.838;2024-02-28T00:42:18;38.10;;;19.42;;
29370;SDS011;16357;52.188;7.838;2024-02-28T00:44:45;44.42;;;21.60;;
29370;SDS011;16357;52.188;7.838;2024-02-28T00:47:11;41.22;;;20.23;;
29370;SDS011;16357;52.188;7.838;2024-02-28T00:49:37;42.78;;;19.88;;
29370;SDS011;16357;52.188;7.838;2024-02-28T00:52:04;42.38;;;19.88;;
29370;SDS011;16357;52.188;7.838;2024-02-28T00:54:31;42.92;;;20.13;;
29370;SDS011;16357;52.188;7.838;2024-02-28T00:56:58;40.28;;;19.77;;
29370;SDS011;16357;52.188;7.838;2024-02-28T00:59:26;51.83;;;21.27;;
29370;SDS011;16357;52.188;7.838;2024-02-28T01:01:52;67.50;;;19.95;;
29370;SDS011;16357;52.188;7.838;2024-02-28T01:04:18;59.45;;;19.88;;
29370;SDS011;16357;52.188;7.838;2024-02-28T01:06:45;78.75;;;21.27;;
29370;SDS011;16357;52.188;7.838;2024-02-28T01:09:12;74.85;;;21.65;;
29370;SDS011;16357;52.188;7.838;2024-02-28T01:11:39;69.85;;;21.05;;
29370;SDS011;16357;52.188;7.838;2024-02-28T01:14:05;82.38;;;22.08;;
29370;SDS011;16357;52.188;7.838;2024-02-28T01:16:32;62.30;;;20.75;;
29370;SDS011;16357;52.188;7.838;2024-02-28T01:18:58;76.07;;;21.55;;
29370;SDS011;16357;52.188;7.838;2024-02-28T01:21:25;66.30;;;21.13;;
29370;SDS011;16357;52.188;7.838;2024-02-28T01:23:51;53.95;;;19.98;;
29370;SDS011;16357;52.188;7.838;2024-02-28T01:26:18;71.95;;;19.42;;
29370;SDS011;16357;52.188;7.838;2024-02-28T01:28:47;44.17;;;18.42;;
29370;SDS011;16357;52.188;7.838;2024-02-28T01:31:15;49.17;;;18.58;;
29370;SDS011;16357;52.188;7.838;2024-02-28T01:33:42;58.83;;;20.05;;
29370;SDS011;16357;52.188;7.838;2024-02-28T01:36:08;67.13;;;20.65;;
29370;SDS011;16357;52.188;7.838;2024-02-28T01:38:35;73.45;;;19.70;;
29370;SDS011;16357;52.188;7.838;2024-02-28T01:41:01;57.80;;;18.15;;
29370;SDS011;16357;52.188;7.838;2024-02-28T01:43:28;51.60;;;17.80;;
29370;SDS011;16357;52.188;7.838;2024-02-28T01:45:54;53.78;;;16.77;;
29370;SDS011;16357;52.188;7.838;2024-02-28T01:48:21;49.45;;;15.55;;
29370;SDS011;16357;52.188;7.838;2024-02-28T01:50:48;61.05;;;14.70;;
29370;SDS011;16357;52.188;7.838;2024-02-28T01:53:15;40.45;;;14.98;;
29370;SDS011;16357;52.188;7.838;2024-02-28T01:55:45;49.53;;;15.70;;
29370;SDS011;16357;52.188;7.838;2024-02-28T01:58:11;38.28;;;15.07;;
29370;SDS011;16357;52.188;7.838;2024-02-28T02:00:38;36.25;;;15.40;;
29370;SDS011;16357;52.188;7.838;2024-02-28T02:03:06;49.17;;;15.02;;
29370;SDS011;16357;52.188;7.838;2024-02-28T02:05:32;29.98;;;13.77;;
29370;SDS011;16357;52.188;7.838;2024-02-28T02:07:59;79.90;;;15.40;;
29370;SDS011;16357;52.188;7.838;2024-02-28T02:10:27;57.60;;;13.82;;
29370;SDS011;16357;52.188;7.838;2024-02-28T02:12:54;34.90;;;14.27;;
29370;SDS011;16357;52.188;7.838;2024-02-28T02:15:20;31.20;;;12.50;;
29370;SDS011;16357;52.188;7.838;2024-02-28T02:17:47;31.83;;;13.38;;
29370;SDS011;16357;52.188;7.838;2024-02-28T02:20:14;31.70;;;13.80;;
29370;SDS011;16357;52.188;7.838;2024-02-28T02:22:41;54.35;;;13.60;;
29370;SDS011;16357;52.188;7.838;2024-02-28T02:25:08;59.88;;;15.18;;
29370;SDS011;16357;52.188;7.838;2024-02-28T02:27:34;63.42;;;14.75;;
29370;SDS011;16357;52.188;7.838;2024-02-28T02:30:01;29.02;;;13.07;;
29370;SDS011;16357;52.188;7.838;2024-02-28T02:32:28;43.10;;;15.68;;
29370;SDS011;16357;52.188;7.838;2024-02-28T02:34:55;44.72;;;14.30;;
29370;SDS011;16357;52.188;7.838;2024-02-28T02:37:21;49.75;;;15.07;;
29370;SDS011;16357;52.188;7.838;2024-02-28T02:39:48;31.38;;;14.27;;
29370;SDS011;16357;52.188;7.838;2024-02-28T02:42:14;43.72;;;13.40;;
29370;SDS011;16357;52.188;7.838;2024-02-28T02:44:41;69.03;;;14.68;;
29370;SDS011;16357;52.188;7.838;2024-02-28T02:47:08;52.13;;;13.60;;
29370;SDS011;16357;52.188;7.838;2024-02-28T02:49:34;37.65;;;13.50;;
29370;SDS011;16357;52.188;7.838;2024-02-28T02:52:01;34.08;;;12.95;;
29370;SDS011;16357;52.188;7.838;2024-02-28T02:54:27;41.60;;;13.00;;
29370;SDS011;16357;52.188;7.838;2024-02-28T02:56:54;31.20;;;13.07;;
29370;SDS011;16357;52.188;7.838;2024-02-28T02:59:20;53.55;;;13.75;;
29370;SDS011;16357;52.188;7.838;2024-02-28T03:01:49;76.93;;;13.48;;
29370;SDS011;16357;52.188;7.838;2024-02-28T03:04:16;47.70;;;12.57;;
29370;SDS011;16357;52.188;7.838;2024-02-28T03:06:42;107.60;;;13.15;;
29370;SDS011;16357;52.188;7.838;2024-02-28T03:09:09;44.88;;;12.55;;
29370;SDS011;16357;52.188;7.838;2024-02-28T03:11:35;71.88;;;13.05;;
29370;SDS011;16357;52.188;7.838;2024-02-28T03:14:02;44.92;;;12.30;;
29370;SDS011;16357;52.188;7.838;2024-02-28T03:16:28;67.53;;;13.70;;
29370;SDS011;16357;52.188;7.838;2024-02-28T03:18:55;44.95;;;11.88;;
29370;SDS011;16357;52.188;7.838;2024-02-28T03:21:22;60.55;;;13.00;;
29370;SDS011;16357;52.188;7.838;2024-02-28T03:23:49;58.92;;;11.70;;
29370;SDS011;16357;52.188;7.838;2024-02-28T03:26:15;55.38;;;12.82;;
29370;SDS011;16357;52.188;7.838;2024-02-28T03:28:42;47.80;;;12.63;;
29370;SDS011;16357;52.188;7.838;2024-02-28T03:31:08;59.15;;;12.93;;
29370;SDS011;16357;52.188;7.838;2024-02-28T03:33:35;45.42;;;11.38;;
29370;SDS011;16357;52.188;7.838;2024-02-28T03:36:01;32.13;;;11.45;;
29370;SDS011;16357;52.188;7.838;2024-02-28T03:38:28;30.92;;;11.60;;
29370;SDS011;16357;52.188;7.838;2024-02-28T03:40:55;39.40;;;10.55;;
29370;SDS011;16357;52.188;7.838;2024-02-28T03:43:21;52.80;;;11.40;;
29370;SDS011;16357;52.188;7.838;2024-02-28T03:45:48;25.92;;;10.35;;
29370;SDS011;16357;52.188;7.838;2024-02-28T03:48:16;27.15;;;10.07;;
29370;SDS011;16357;52.188;7.838;2024-02-28T03:50:43;40.13;;;10.95;;
29370;SDS011;16357;52.188;7.838;2024-02-28T03:53:09;33.35;;;10.60;;
29370;SDS011;16357;52.188;7.838;2024-02-28T03:55:36;31.55;;;10.00;;
29370;SDS011;16357;52.188;7.838;2024-02-28T03:58:04;23.08;;;10.73;;
29370;SDS011;16357;52.188;7.838;2024-02-28T04:00:33;40.97;;;11.00;;
29370;SDS011;16357;52.188;7.838;2024-02-28T04:02:59;33.70;;;10.98;;
29370;SDS011;16357;52.188;7.838;2024-02-28T04:05:26;44.85;;;10.93;;
29370;SDS011;16357;52.188;7.838;2024-02-28T04:07:52;67.35;;;12.80;;
29370;SDS011;16357;52.188;7.838;2024-02-28T04:10:19;37.30;;;11.00;;
29370;SDS011;16357;52.188;7.838;2024-02-28T04:12:45;39.28;;;10.77;;
29370;SDS011;16357;52.188;7.838;2024-02-28T04:15:12;35.03;;;11.20;;
29370;SDS011;16357;52.188;7.838;2024-02-28T04:17:41;24.17;;;10.50;;
29370;SDS011;16357;52.188;7.838;2024-02-28T04:20:11;39.38;;;12.40;;
29370;SDS011;16357;52.188;7.838;2024-02-28T04:22:39;30.98;;;10.82;;
29370;SDS011;16357;52.188;7.838;2024-02-28T04:25:07;37.95;;;11.95;;
29370;SDS011;16357;52.188;7.838;2024-02-28T04:27:38;24.05;;;11.65;;
29370;SDS011;16357;52.188;7.838;2024-02-28T04:30:04;24.38;;;11.18;;
29370;SDS011;16357;52.188;7.838;2024-02-28T04:32:31;26.42;;;12.45;;
29370;SDS011;16357;52.188;7.838;2024-02-28T04:34:58;26.60;;;12.63;;
29370;SDS011;16357;52.188;7.838;2024-02-28T04:37:24;37.45;;;13.02;;
29370;SDS011;16357;52.188;7.838;2024-02-28T04:39:51;34.88;;;13.00;;
29370;SDS011;16357;52.188;7.838;2024-02-28T04:42:17;24.98;;;12.40;;
29370;SDS011;16357;52.188;7.838;2024-02-28T04:44:44;40.72;;;13.50;;
29370;SDS011;16357;52.188;7.838;2024-02-28T04:47:10;27.10;;;12.88;;
29370;SDS011;16357;52.188;7.838;2024-02-28T04:49:37;40.60;;;14.15;;
29370;SDS011;16357;52.188;7.838;2024-02-28T04:52:07;39.72;;;14.35;;
29370;SDS011;16357;52.188;7.838;2024-02-28T04:54:33;44.78;;;15.25;;
29370;SDS011;16357;52.188;7.838;2024-02-28T04:57:00;34.90;;;13.82;;
29370;SDS011;16357;52.188;7.838;2024-02-28T04:59:27;39.05;;;14.23;;
29370;SDS011;16357;52.188;7.838;2024-02-28T05:01:53;37.67;;;13.98;;
29370;SDS011;16357;52.188;7.838;2024-02-28T05:04:20;35.83;;;13.15;;
29370;SDS011;16357;52.188;7.838;2024-02-28T05:06:47;40.55;;;14.07;;
29370;SDS011;16357;52.188;7.838;2024-02-28T05:09:13;43.42;;;14.15;;
29370;SDS011;16357;52.188;7.838;2024-02-28T05:11:40;37.65;;;15.10;;
29370;SDS011;16357;52.188;7.838;2024-02-28T05:14:08;40.05;;;13.30;;
29370;SDS011;16357;52.188;7.838;2024-02-28T05:16:36;44.38;;;15.10;;
29370;SDS011;16357;52.188;7.838;2024-02-28T05:19:02;50.05;;;14.93;;
29370;SDS011;16357;52.188;7.838;2024-02-28T05:21:30;35.83;;;14.70;;
29370;SDS011;16357;52.188;7.838;2024-02-28T05:23:57;45.80;;;15.02;;
29370;SDS011;16357;52.188;7.838;2024-02-28T05:26:23;37.60;;;14.18;;
29370;SDS011;16357;52.188;7.838;2024-02-28T05:28:51;57.17;;;14.85;;
29370;SDS011;16357;52.188;7.838;2024-02-28T05:31:24;41.42;;;14.52;;
29370;SDS011;16357;52.188;7.838;2024-02-28T05:33:52;32.17;;;14.20;;
29370;SDS011;16357;52.188;7.838;2024-02-28T05:36:21;40.38;;;14.45;;
29370;SDS011;16357;52.188;7.838;2024-02-28T05:38:52;36.60;;;14.63;;
29370;SDS011;16357;52.188;7.838;2024-02-28T05:41:19;41.28;;;15.52;;
29370;SDS011;16357;52.188;7.838;2024-02-28T05:43:46;42.38;;;14.25;;
29370;SDS011;16357;52.188;7.838;2024-02-28T05:46:13;32.45;;;14.82;;
29370;SDS011;16357;52.188;7.838;2024-02-28T05:48:41;43.38;;;15.07;;
29370;SDS011;16357;52.188;7.838;2024-02-28T05:51:08;40.22;;;14.63;;
29370;SDS011;16357;52.188;7.838;2024-02-28T05:53:34;40.72;;;15.20;;
29370;SDS011;16357;52.188;7.838;2024-02-28T05:56:04;38.10;;;14.80;;
29370;SDS011;16357;52.188;7.838;2024-02-28T05:58:31;39.90;;;15.05;;
29370;SDS011;16357;52.188;7.838;2024-02-28T06:00:58;36.08;;;16.05;;
29370;SDS011;16357;52.188;7.838;2024-02-28T06:03:24;42.20;;;17.35;;
29370;SDS011;16357;52.188;7.838;2024-02-28T06:05:51;44.33;;;16.00;;
29370;SDS011;16357;52.188;7.838;2024-02-28T06:08:18;41.13;;;15.77;;
29370;SDS011;16357;52.188;7.838;2024-02-28T06:10:44;41.15;;;15.65;;
29370;SDS011;16357;52.188;7.838;2024-02-28T06:13:13;41.05;;;16.10;;
29370;SDS011;16357;52.188;7.838;2024-02-28T06:15:40;38.85;;;16.65;;
29370;SDS011;16357;52.188;7.838;2024-02-28T06:18:06;38.72;;;16.05;;
29370;SDS011;16357;52.188;7.838;2024-02-28T06:20:33;36.50;;;16.50;;
29370;SDS011;16357;52.188;7.838;2024-02-28T06:22:59;42.47;;;17.35;;
29370;SDS011;16357;52.188;7.838;2024-02-28T06:25:35;46.97;;;18.08;;
29370;SDS011;16357;52.188;7.838;2024-02-28T06:28:01;48.67;;;17.92;;
29370;SDS011;16357;52.188;7.838;2024-02-28T06:30:29;38.47;;;17.85;;
29370;SDS011;16357;52.188;7.838;2024-02-28T06:32:58;38.30;;;17.48;;
29370;SDS011;16357;52.188;7.838;2024-02-28T06:35:26;38.25;;;16.48;;
29370;SDS011;16357;52.188;7.838;2024-02-28T06:37:52;43.10;;;18.20;;
29370;SDS011;16357;52.188;7.838;2024-02-28T06:40:19;36.63;;;17.83;;
29370;SDS011;16357;52.188;7.838;2024-02-28T06:42:46;43.38;;;18.25;;
29370;SDS011;16357;52.188;7.838;2024-02-28T06:45:12;41.05;;;17.42;;
29370;SDS011;16357;52.188;7.838;2024-02-28T06:47:39;43.25;;;18.25;;
29370;SDS011;16357;52.188;7.838;2024-02-28T06:50:06;38.67;;;17.25;;
29370;SDS011;16357;52.188;7.838;2024-02-28T06:52:33;49.85;;;18.13;;
29370;SDS011;16357;52.188;7.838;2024-02-28T06:55:01;39.35;;;17.27;;
29370;SDS011;16357;52.188;7.838;2024-02-28T06:57:29;39.72;;;17.17;;
29370;SDS011;16357;52.188;7.838;2024-02-28T06:59:56;34.90;;;16.17;;
29370;SDS011;16357;52.188;7.838;2024-02-28T07:02:22;35.08;;;17.25;;
29370;SDS011;16357;52.188;7.838;2024-02-28T07:04:49;40.38;;;18.48;;
29370;SDS011;16357;52.188;7.838;2024-02-28T07:07:15;37.05;;;17.80;;
29370;SDS011;16357;52.188;7.838;2024-02-28T07:09:41;41.72;;;17.58;;
29370;SDS011;16357;52.188;7.838;2024-02-28T07:12:08;32.55;;;16.60;;
29370;SDS011;16357;52.188;7.838;2024-02-28T07:14:34;41.47;;;17.85;;
29370;SDS011;16357;52.188;7.838;2024-02-28T07:17:01;45.33;;;17.75;;
29370;SDS011;16357;52.188;7.838;2024-02-28T07:19:27;37.40;;;17.63;;
29370;SDS011;16357;52.188;7.838;2024-02-28T07:21:54;37.15;;;18.55;;
29370;SDS011;16357;52.188;7.838;2024-02-28T07:24:20;36.25;;;17.42;;
29370;SDS011;16357;52.188;7.838;2024-02-28T07:26:47;37.40;;;18.65;;
29370;SDS011;16357;52.188;7.838;2024-02-28T07:29:14;40.85;;;19.75;;
29370;SDS011;16357;52.188;7.838;2024-02-28T07:31:41;42.03;;;19.60;;
29370;SDS011;16357;52.188;7.838;2024-02-28T07:34:07;42.13;;;20.55;;
29370;SDS011;16357;52.188;7.838;2024-02-28T07:36:34;43.35;;;20.55;;
29370;SDS011;16357;52.188;7.838;2024-02-28T07:39:01;43.72;;;20.35;;
29370;SDS011;16357;52.188;7.838;2024-02-28T07:41:27;45.40;;;21.45;;
29370;SDS011;16357;52.188;7.838;2024-02-28T07:43:54;61.50;;;22.38;;
29370;SDS011;16357;52.188;7.838;2024-02-28T07:46:20;48.83;;;21.48;;
29370;SDS011;16357;52.188;7.838;2024-02-28T07:48:46;51.88;;;23.10;;
29370;SDS011;16357;52.188;7.838;2024-02-28T07:51:13;56.72;;;23.63;;
29370;SDS011;16357;52.188;7.838;2024-02-28T07:53:41;59.55;;;22.90;;
29370;SDS011;16357;52.188;7.838;2024-02-28T07:56:14;58.42;;;23.67;;
29370;SDS011;16357;52.188;7.838;2024-02-28T07:58:41;56.92;;;24.83;;
29370;SDS011;16357;52.188;7.838;2024-02-28T08:01:08;49.78;;;22.75;;
29370;SDS011;16357;52.188;7.838;2024-02-28T08:03:35;58.03;;;23.92;;
29370;SDS011;16357;52.188;7.838;2024-02-28T08:06:01;54.67;;;24.38;;
29370;SDS011;16357;52.188;7.838;2024-02-28T08:08:28;53.65;;;24.85;;
29370;SDS011;16357;52.188;7.838;2024-02-28T08:10:54;50.35;;;24.33;;
29370;SDS011;16357;52.188;7.838;2024-02-28T08:13:21;53.13;;;25.58;;
29370;SDS011;16357;52.188;7.838;2024-02-28T08:15:47;58.00;;;24.83;;
29370;SDS011;16357;52.188;7.838;2024-02-28T08:18:14;62.47;;;26.15;;
29370;SDS011;16357;52.188;7.838;2024-02-28T08:20:40;55.67;;;24.35;;
29370;SDS011;16357;52.188;7.838;2024-02-28T08:23:07;63.25;;;26.38;;
29370;SDS011;16357;52.188;7.838;2024-02-28T08:25:34;58.75;;;26.98;;
29370;SDS011;16357;52.188;7.838;2024-02-28T08:28:00;53.45;;;26.13;;
29370;SDS011;16357;52.188;7.838;2024-02-28T08:30:27;62.17;;;25.77;;
29370;SDS011;16357;52.188;7.838;2024-02-28T08:32:53;59.60;;;26.27;;
29370;SDS011;16357;52.188;7.838;2024-02-28T08:35:20;65.25;;;26.52;;
29370;SDS011;16357;52.188;7.838;2024-02-28T08:37:46;70.82;;;27.38;;
29370;SDS011;16357;52.188;7.838;2024-02-28T08:40:13;52.97;;;25.98;;
29370;SDS011;16357;52.188;7.838;2024-02-28T08:42:39;63.13;;;27.92;;
29370;SDS011;16357;52.188;7.838;2024-02-28T08:45:08;57.20;;;26.50;;
29370;SDS011;16357;52.188;7.838;2024-02-28T08:47:34;59.75;;;27.65;;
29370;SDS011;16357;52.188;7.838;2024-02-28T08:50:01;63.70;;;27.88;;
29370;SDS011;16357;52.188;7.838;2024-02-28T08:52:27;59.53;;;27.30;;
29370;SDS011;16357;52.188;7.838;2024-02-28T08:54:54;62.58;;;28.70;;
29370;SDS011;16357;52.188;7.838;2024-02-28T08:57:20;60.70;;;27.20;;
29370;SDS011;16357;52.188;7.838;2024-02-28T08:59:49;61.60;;;28.50;;
29370;SDS011;16357;52.188;7.838;2024-02-28T09:02:19;63.53;;;29.13;;
29370;SDS011;16357;52.188;7.838;2024-02-28T09:04:45;68.30;;;29.25;;
29370;SDS011;16357;52.188;7.838;2024-02-28T09:07:12;70.07;;;30.05;;
29370;SDS011;16357;52.188;7.838;2024-02-28T09:09:42;76.50;;;32.05;;
29370;SDS011;16357;52.188;7.838;2024-02-28T09:12:09;69.13;;;30.13;;
29370;SDS011;16357;52.188;7.838;2024-02-28T09:14:35;64.97;;;29.50;;
29370;SDS011;16357;52.188;7.838;2024-02-28T09:17:02;73.55;;;30.58;;
29370;SDS011;16357;52.188;7.838;2024-02-28T09:19:32;69.32;;;30.33;;
29370;SDS011;16357;52.188;7.838;2024-02-28T09:21:58;67.07;;;29.50;;
29370;SDS011;16357;52.188;7.838;2024-02-28T09:24:25;65.05;;;29.40;;
29370;SDS011;16357;52.188;7.838;2024-02-28T09:26:52;60.35;;;27.33;;
29370;SDS011;16357;52.188;7.838;2024-02-28T09:29:18;66.93;;;29.35;;
29370;SDS011;16357;52.188;7.838;2024-02-28T09:31:45;64.90;;;28.17;;
29370;SDS011;16357;52.188;7.838;2024-02-28T09:34:11;71.70;;;30.77;;
29370;SDS011;16357;52.188;7.838;2024-02-28T09:36:40;67.68;;;29.52;;
29370;SDS011;16357;52.188;7.838;2024-02-28T09:39:09;65.57;;;30.45;;
29370;SDS011;16357;52.188;7.838;2024-02-28T09:41:36;66.97;;;30.92;;
29370;SDS011;16357;52.188;7.838;2024-02-28T09:44:02;73.78;;;30.73;;
29370;SDS011;16357;52.188;7.838;2024-02-28T09:46:29;74.63;;;30.95;;
29370;SDS011;16357;52.188;7.838;2024-02-28T09:48:57;72.90;;;32.17;;
29370;SDS011;16357;52.188;7.838;2024-02-28T09:51:25;69.68;;;29.75;;
29370;SDS011;16357;52.188;7.838;2024-02-28T09:53:54;66.25;;;30.58;;
29370;SDS011;16357;52.188;7.838;2024-02-28T09:56:20;69.35;;;30.73;;
29370;SDS011;16357;52.188;7.838;2024-02-28T09:58:48;68.57;;;30.63;;
29370;SDS011;16357;52.188;7.838;2024-02-28T10:01:15;71.38;;;31.92;;
29370;SDS011;16357;52.188;7.838;2024-02-28T10:03:45;78.10;;;32.03;;
29370;SDS011;16357;52.188;7.838;2024-02-28T10:06:13;73.45;;;30.38;;
29370;SDS011;16357;52.188;7.838;2024-02-28T10:08:41;70.90;;;31.40;;
29370;SDS011;16357;52.188;7.838;2024-02-28T10:11:08;68.82;;;29.80;;
29370;SDS011;16357;52.188;7.838;2024-02-28T10:13:35;72.38;;;32.25;;
29370;SDS011;16357;52.188;7.838;2024-02-28T10:16:02;74.28;;;31.95;;
29370;SDS011;16357;52.188;7.838;2024-02-28T10:18:30;67.07;;;30.73;;
29370;SDS011;16357;52.188;7.838;2024-02-28T10:20:56;67.40;;;31.17;;
29370;SDS011;16357;52.188;7.838;2024-02-28T10:23:22;76.03;;;32.40;;
29370;SDS011;16357;52.188;7.838;2024-02-28T10:25:49;73.35;;;31.60;;
29370;SDS011;16357;52.188;7.838;2024-02-28T10:28:23;74.90;;;32.17;;
29370;SDS011;16357;52.188;7.838;2024-02-28T10:30:49;70.30;;;30.60;;
29370;SDS011;16357;52.188;7.838;2024-02-28T10:33:16;70.90;;;32.28;;
29370;SDS011;16357;52.188;7.838;2024-02-28T10:35:43;64.07;;;30.23;;
29370;SDS011;16357;52.188;7.838;2024-02-28T10:38:13;69.28;;;31.20;;
29370;SDS011;16357;52.188;7.838;2024-02-28T10:40:40;73.18;;;31.75;;
29370;SDS011;16357;52.188;7.838;2024-02-28T10:43:07;68.95;;;29.75;;
29370;SDS011;16357;52.188;7.838;2024-02-28T10:45:35;69.32;;;29.35;;
29370;SDS011;16357;52.188;7.838;2024-02-28T10:48:23;72.75;;;32.17;;
29370;SDS011;16357;52.188;7.838;2024-02-28T10:50:50;78.05;;;32.80;;
29370;SDS011;16357;52.188;7.838;2024-02-28T10:53:20;74.75;;;31.75;;
29370;SDS011;16357;52.188;7.838;2024-02-28T10:55:48;73.70;;;31.17;;
29370;SDS011;16357;52.188;7.838;2024-02-28T10:58:15;73.93;;;32.40;;
29370;SDS011;16357;52.188;7.838;2024-02-28T11:00:44;74.13;;;32.47;;
29370;SDS011;16357;52.188;7.838;2024-02-28T11:03:13;71.32;;;31.05;;
29370;SDS011;16357;52.188;7.838;2024-02-28T11:05:43;78.68;;;33.35;;
29370;SDS011;16357;52.188;7.838;2024-02-28T11:08:20;70.70;;;32.00;;
29370;SDS011;16357;52.188;7.838;2024-02-28T11:10:46;71.95;;;32.75;;
29370;SDS011;16357;52.188;7.838;2024-02-28T11:13:23;77.78;;;31.83;;
29370;SDS011;16357;52.188;7.838;2024-02-28T11:15:51;74.07;;;32.72;;
29370;SDS011;16357;52.188;7.838;2024-02-28T11:18:18;74.05;;;32.85;;
29370;SDS011;16357;52.188;7.838;2024-02-28T11:20:45;73.25;;;33.80;;
29370;SDS011;16357;52.188;7.838;2024-02-28T11:23:15;77.07;;;32.63;;
29370;SDS011;16357;52.188;7.838;2024-02-28T11:25:43;73.55;;;32.97;;
29370;SDS011;16357;52.188;7.838;2024-02-28T11:28:10;80.97;;;33.22;;
29370;SDS011;16357;52.188;7.838;2024-02-28T11:30:36;77.93;;;32.67;;
29370;SDS011;16357;52.188;7.838;2024-02-28T11:33:03;76.70;;;32.13;;
29370;SDS011;16357;52.188;7.838;2024-02-28T11:35:32;75.38;;;32.97;;
29370;SDS011;16357;52.188;7.838;2024-02-28T11:37:59;72.35;;;31.85;;
29370;SDS011;16357;52.188;7.838;2024-02-28T11:40:25;74.85;;;32.72;;
29370;SDS011;16357;52.188;7.838;2024-02-28T11:42:53;81.57;;;33.10;;
29370;SDS011;16357;52.188;7.838;2024-02-28T11:45:21;75.07;;;33.40;;
29370;SDS011;16357;52.188;7.838;2024-02-28T11:47:48;76.78;;;34.63;;
29370;SDS011;16357;52.188;7.838;2024-02-28T11:50:15;78.30;;;33.63;;
29370;SDS011;16357;52.188;7.838;2024-02-28T11:52:44;75.82;;;33.95;;
29370;SDS011;16357;52.188;7.838;2024-02-28T11:55:12;71.72;;;32.35;;
29370;SDS011;16357;52.188;7.838;2024-02-28T11:57:38;70.25;;;31.92;;
29370;SDS011;16357;52.188;7.838;2024-02-28T12:00:06;71.95;;;32.08;;
29370;SDS011;16357;52.188;7.838;2024-02-28T12:02:33;73.78;;;33.40;;
29370;SDS011;16357;52.188;7.838;2024-02-28T12:05:03;74.38;;;32.83;;
29370;SDS011;16357;52.188;7.838;2024-02-28T12:07:33;66.30;;;31.13;;
29370;SDS011;16357;52.188;7.838;2024-02-28T12:09:59;66.72;;;32.33;;
29370;SDS011;16357;52.188;7.838;2024-02-28T12:12:29;68.78;;;30.90;;
29370;SDS011;16357;52.188;7.838;2024-02-28T12:14:59;65.35;;;30.55;;
29370;SDS011;16357;52.188;7.838;2024-02-28T12:17:26;68.97;;;32.35;;
29370;SDS011;16357;52.188;7.838;2024-02-28T12:19:53;62.80;;;30.13;;
29370;SDS011;16357;52.188;7.838;2024-02-28T12:22:21;68.82;;;31.15;;
29370;SDS011;16357;52.188;7.838;2024-02-28T12:24:48;66.00;;;30.80;;
29370;SDS011;16357;52.188;7.838;2024-02-28T12:27:14;60.90;;;30.25;;
29370;SDS011;16357;52.188;7.838;2024-02-28T12:29:41;59.85;;;29.33;;
29370;SDS011;16357;52.188;7.838;2024-02-28T12:32:07;60.80;;;29.27;;
29370;SDS011;16357;52.188;7.838;2024-02-28T12:34:35;60.20;;;30.33;;
29370;SDS011;16357;52.188;7.838;2024-02-28T12:37:01;63.20;;;31.65;;
29370;SDS011;16357;52.188;7.838;2024-02-28T12:39:29;59.78;;;30.70;;
29370;SDS011;16357;52.188;7.838;2024-02-28T12:41:55;66.55;;;31.85;;
29370;SDS011;16357;52.188;7.838;2024-02-28T12:44:22;61.60;;;31.17;;
29370;SDS011;16357;52.188;7.838;2024-02-28T12:46:48;65.18;;;32.42;;
29370;SDS011;16357;52.188;7.838;2024-02-28T12:49:14;66.28;;;32.60;;
29370;SDS011;16357;52.188;7.838;2024-02-28T12:54:10;62.42;;;31.33;;
29370;SDS011;16357;52.188;7.838;2024-02-28T12:56:37;65.72;;;33.35;;
29370;SDS011;16357;52.188;7.838;2024-02-28T12:59:04;60.55;;;32.03;;
29370;SDS011;16357;52.188;7.838;2024-02-28T13:01:33;56.70;;;30.85;;
29370;SDS011;16357;52.188;7.838;2024-02-28T13:04:00;59.25;;;29.80;;
29370;SDS011;16357;52.188;7.838;2024-02-28T13:06:27;56.22;;;30.02;;
29370;SDS011;16357;52.188;7.838;2024-02-28T13:08:53;55.13;;;29.17;;
29370;SDS011;16357;52.188;7.838;2024-02-28T13:11:21;58.25;;;30.27;;
29370;SDS011;16357;52.188;7.838;2024-02-28T13:13:51;54.30;;;30.70;;
29370;SDS011;16357;52.188;7.838;2024-02-28T13:16:19;54.67;;;29.23;;
29370;SDS011;16357;52.188;7.838;2024-02-28T13:18:45;50.17;;;28.67;;
29370;SDS011;16357;52.188;7.838;2024-02-28T13:21:12;52.47;;;28.25;;
29370;SDS011;16357;52.188;7.838;2024-02-28T13:23:39;49.33;;;29.05;;
29370;SDS011;16357;52.188;7.838;2024-02-28T13:26:06;49.95;;;29.13;;
29370;SDS011;16357;52.188;7.838;2024-02-28T13:28:33;51.63;;;30.17;;
29370;SDS011;16357;52.188;7.838;2024-02-28T13:31:02;50.92;;;30.25;;
29370;SDS011;16357;52.188;7.838;2024-02-28T13:33:30;54.85;;;30.92;;
29370;SDS011;16357;52.188;7.838;2024-02-28T13:35:57;56.33;;;32.25;;
29370;SDS011;16357;52.188;7.838;2024-02-28T13:38:23;57.78;;;31.85;;
29370;SDS011;16357;52.188;7.838;2024-02-28T13:40:50;55.45;;;31.25;;
29370;SDS011;16357;52.188;7.838;2024-02-28T13:43:16;58.63;;;33.55;;
29370;SDS011;16357;52.188;7.838;2024-02-28T13:45:51;58.58;;;33.00;;
29370;SDS011;16357;52.188;7.838;2024-02-28T13:48:19;58.38;;;32.70;;
29370;SDS011;16357;52.188;7.838;2024-02-28T13:50:48;57.60;;;33.40;;
29370;SDS011;16357;52.188;7.838;2024-02-28T13:53:15;60.33;;;32.72;;
29370;SDS011;16357;52.188;7.838;2024-02-28T13:55:42;56.53;;;31.27;;
29370;SDS011;16357;52.188;7.838;2024-02-28T13:58:10;59.22;;;32.33;;
29370;SDS011;16357;52.188;7.838;2024-02-28T14:00:37;55.65;;;30.25;;
29370;SDS011;16357;52.188;7.838;2024-02-28T14:03:05;59.90;;;32.85;;
29370;SDS011;16357;52.188;7.838;2024-02-28T14:05:32;62.83;;;34.05;;
29370;SDS011;16357;52.188;7.838;2024-02-28T14:07:59;56.05;;;33.28;;
29370;SDS011;16357;52.188;7.838;2024-02-28T14:10:26;63.38;;;35.38;;
29370;SDS011;16357;52.188;7.838;2024-02-28T14:12:52;55.88;;;32.78;;
29370;SDS011;16357;52.188;7.838;2024-02-28T14:15:19;60.63;;;34.58;;
29370;SDS011;16357;52.188;7.838;2024-02-28T14:17:46;60.25;;;34.55;;
29370;SDS011;16357;52.188;7.838;2024-02-28T14:20:13;60.90;;;33.40;;
29370;SDS011;16357;52.188;7.838;2024-02-28T14:22:39;57.17;;;32.67;;